»·PEaware :: N475RS KBOI-KSLC

N475RS :: KBOI-KSLC

FLIGHT INFORMATION

Flight Status: Arrived
Operator: Privately registered:
United States
More flights under this callsign
Pilot: Aker J. (16898)
Aircraft: AIRBUS A320
(A320)
More flights by this aircraft type
Origin: KBOI Boise Air Terminal/Gowen
United States
Destination: KSLC Salt Lake City Intl
United States
More flights between these airports :: More routes between these airports
Route: +ROARR BYI SKEES5
File this flight plan on PilotEdge
Remarks:
Altitude:
(Current/Filed)
33,000ft
Speed:
(Current/Filed)
450kts
Departed: 25-Feb-18 03:05 PM
Arrived: 25-Feb-18 03:51 PM
Distance/Time
Traveled:
586nm/0:46
Distance/Time
To Go:
Arrived

Flight Plot

Page will automatically refresh every two minutes.

Flight plan parsing failed; only flown route is shown


Map Options




Map Legend


Flown Route
Filed Route
Departure Airport
Arrival Airport
Navaid (VOR, NDB)
Fix

Horizontal Profiles

Position Reports

Time Latitude Longitude Heading Altitude Ground
Speed
25-Feb-18 14:17 43.562046 -116.205625 190 2872ft 0kts
25-Feb-18 14:18 43.562046 -116.205625 190 2872ft 0kts
25-Feb-18 14:19 43.562046 -116.205625 190 2872ft 0kts
25-Feb-18 14:20 43.562046 -116.205625 190 2872ft 0kts
25-Feb-18 14:21 43.562046 -116.205625 190 2872ft 0kts
25-Feb-18 14:22 43.562046 -116.205625 190 2872ft 0kts
25-Feb-18 14:23 43.562046 -116.205625 190 2872ft 0kts
25-Feb-18 14:24 43.562046 -116.205625 190 2872ft 0kts
25-Feb-18 14:25 43.562046 -116.205625 190 2872ft 0kts
25-Feb-18 14:26 43.562046 -116.205625 190 2872ft 0kts
25-Feb-18 14:27 43.562046 -116.205625 190 2872ft 0kts
25-Feb-18 14:28 43.562046 -116.205625 190 2872ft 0kts
25-Feb-18 14:29 43.562046 -116.205625 190 2872ft 0kts
25-Feb-18 14:30 43.562046 -116.205625 190 2872ft 0kts
25-Feb-18 14:31 43.562046 -116.205625 190 2872ft 0kts
25-Feb-18 14:32 43.562046 -116.205625 190 2872ft 0kts
25-Feb-18 14:33 43.562046 -116.205625 190 2872ft 0kts
25-Feb-18 14:34 43.562046 -116.205625 190 2872ft 0kts
25-Feb-18 14:35 43.562046 -116.205625 190 2872ft 0kts
25-Feb-18 14:36 43.562046 -116.205625 190 2872ft 0kts
25-Feb-18 14:37 43.562046 -116.205625 190 2872ft 0kts
25-Feb-18 14:38 43.562046 -116.205625 190 2872ft 0kts
25-Feb-18 14:39 43.562046 -116.205625 190 2872ft 0kts
25-Feb-18 14:40 43.562046 -116.205625 190 2872ft 0kts
25-Feb-18 14:41 43.562046 -116.205625 190 2872ft 0kts
25-Feb-18 14:42 43.562046 -116.205625 190 2872ft 0kts
25-Feb-18 14:43 43.562046 -116.205625 190 2872ft 0kts
25-Feb-18 14:44 43.562046 -116.205625 190 2872ft 0kts
25-Feb-18 14:45 43.562046 -116.205625 190 2872ft 0kts
25-Feb-18 14:46 43.562046 -116.205625 190 2872ft 0kts
25-Feb-18 14:47 43.562046 -116.205625 190 2872ft 0kts
25-Feb-18 14:48 43.562046 -116.205625 190 2872ft 0kts
25-Feb-18 14:49 43.562046 -116.205625 190 2872ft 0kts
25-Feb-18 14:50 43.562046 -116.205625 190 2872ft 0kts
25-Feb-18 14:51 43.562046 -116.205625 190 2872ft 0kts
25-Feb-18 14:52 43.562046 -116.205625 190 2872ft 0kts
25-Feb-18 14:53 43.562046 -116.205625 190 2872ft 0kts
25-Feb-18 14:54 43.562046 -116.205625 190 2872ft 0kts
25-Feb-18 14:55 43.562046 -116.205625 190 2872ft 0kts
25-Feb-18 14:56 43.562046 -116.205625 190 2872ft 0kts
25-Feb-18 14:57 43.562046 -116.205625 190 2872ft 0kts
25-Feb-18 14:58 43.562046 -116.205625 190 2872ft 0kts
25-Feb-18 14:59 43.562046 -116.205625 190 2872ft 0kts
25-Feb-18 15:00 43.562046 -116.205625 190 2872ft 0kts
25-Feb-18 15:01 43.562046 -116.205625 190 2872ft 0kts
25-Feb-18 15:02 43.562046 -116.205625 190 2872ft 0kts
25-Feb-18 15:03 43.562046 -116.205625 190 2872ft 0kts
25-Feb-18 15:04 43.562046 -116.205625 190 2872ft 0kts
25-Feb-18 15:05 43.562046 -116.205625 190 2872ft 0kts
25-Feb-18 15:06 43.562046 -116.205625 190 2872ft 0kts
25-Feb-18 15:07 43.562046 -116.205625 190 2872ft 0kts
25-Feb-18 15:08 43.562045 -116.205625 191 2872ft 0kts
25-Feb-18 15:09 43.562045 -116.205625 191 2872ft 0kts
25-Feb-18 15:10 43.561407 -116.205803 196 2871ft 22kts
25-Feb-18 15:11 43.563933 -116.214865 295 2861ft 36kts
25-Feb-18 15:12 43.569040 -116.229813 294 2843ft 49kts
25-Feb-18 15:13 43.570903 -116.235469 280 2831ft 2kts
25-Feb-18 15:14 43.563299 -116.216462 117 2922ft 161kts
25-Feb-18 15:15 43.545328 -116.165030 123 5190ft 168kts
25-Feb-18 15:16 43.518901 -116.095570 119 7415ft 255kts
25-Feb-18 15:17 43.488789 -115.997153 118 9955ft 299kts
25-Feb-18 15:18 43.453745 -115.884064 117 11240ft 343kts
25-Feb-18 15:19 43.413373 -115.755132 116 13680ft 381kts
25-Feb-18 15:20 43.371849 -115.622832 117 17301ft 391kts
25-Feb-18 15:21 43.328126 -115.484638 117 20356ft 412kts
25-Feb-18 15:22 43.299804 -115.395479 117 21998ft 425kts
25-Feb-18 15:23 43.239683 -115.280498 135 24049ft 431kts
25-Feb-18 15:24 43.164897 -115.152589 135 25957ft 445kts
25-Feb-18 15:25 43.087985 -115.021466 134 27987ft 448kts
25-Feb-18 15:26 43.010939 -114.890859 134 30112ft 446kts
25-Feb-18 15:27 42.933534 -114.760365 133 31766ft 453kts
25-Feb-18 15:28 42.854517 -114.627692 133 33171ft 464kts
25-Feb-18 15:29 42.769821 -114.486278 132 33201ft 505kts
25-Feb-18 15:30 42.683813 -114.342856 133 33214ft 481kts
25-Feb-18 15:31 42.598988 -114.202554 133 33201ft 493kts
25-Feb-18 15:32 42.513528 -114.061700 133 33194ft 486kts
25-Feb-18 15:33 42.428688 -113.922575 133 33192ft 481kts
25-Feb-18 15:34 42.344201 -113.784686 133 33193ft 477kts
25-Feb-18 15:35 42.259420 -113.647024 133 32532ft 492kts
25-Feb-18 15:36 42.169038 -113.500968 133 30605ft 516kts
25-Feb-18 15:37 42.080244 -113.357843 133 28741ft 493kts
25-Feb-18 15:38 41.995570 -113.222209 134 26864ft 470kts
25-Feb-18 15:39 41.913645 -113.091598 134 24957ft 449kts
25-Feb-18 15:40 41.835756 -112.967949 134 23116ft 429kts
25-Feb-18 15:41 41.760667 -112.849241 134 21234ft 411kts
25-Feb-18 15:42 41.688462 -112.735539 134 19295ft 396kts
25-Feb-18 15:43 41.618260 -112.625395 134 17469ft 379kts
25-Feb-18 15:44 41.552649 -112.522745 135 16188ft 351kts
25-Feb-18 15:45 41.483285 -112.444713 146 15502ft 325kts
25-Feb-18 15:46 41.420619 -112.354543 136 13610ft 349kts
25-Feb-18 15:47 41.358661 -112.262820 137 13037ft 308kts
25-Feb-18 15:48 41.306301 -112.185677 138 13032ft 265kts
25-Feb-18 15:49 41.255767 -112.112352 138 12024ft 280kts
25-Feb-18 15:50 41.189835 -112.065468 162 10562ft 270kts
25-Feb-18 15:51 41.120132 -112.030624 167 9104ft 265kts
25-Feb-18 15:52 41.053568 -112.004776 167 7722ft 263kts
25-Feb-18 15:53 40.985958 -111.980751 167 7020ft 224kts
25-Feb-18 15:54 40.931718 -111.962177 171 6213ft 196kts
25-Feb-18 15:55 40.880224 -111.960574 185 5205ft 184kts
25-Feb-18 15:56 40.837385 -111.961017 183 4884ft 135kts
25-Feb-18 15:57 40.802634 -111.962274 172 4357ft 127kts
25-Feb-18 15:58 40.786258 -111.961044 127 4225ft 5kts
25-Feb-18 15:59 40.784817 -111.959967 179 4225ft 6kts
25-Feb-18 16:00 40.784075 -111.960019 182 4225ft 0kts
25-Feb-18 16:01 40.784075 -111.960019 182 4225ft 0kts
25-Feb-18 16:02 40.784075 -111.960019 182 4225ft 0kts
25-Feb-18 16:03 33.945865 -118.402274 151 127ft 0kts
25-Feb-18 16:04 33.945865 -118.402274 151 127ft 0kts
25-Feb-18 16:05 33.945865 -118.402274 151 127ft 0kts
25-Feb-18 16:06 33.945865 -118.402274 151 127ft 0kts
25-Feb-18 16:07 33.945865 -118.402274 151 127ft 0kts
25-Feb-18 16:08 33.945865 -118.402274 151 127ft 0kts
25-Feb-18 16:09 33.945865 -118.402274 151 127ft 0kts
25-Feb-18 16:10 33.945865 -118.402274 151 127ft 0kts
25-Feb-18 16:11 33.945865 -118.402274 151 127ft 0kts
25-Feb-18 16:12 33.945811 -118.402236 150 116ft 0kts

Navigation Log

Ident Type
Flight plan parsing failed, navigation log unavailable